Terminal Aerodrome Forecast
Issued by NWS Twin Cities, MN

Home | Current Version | Previous Version | Text Only | Print | Product List | Glossary On
Versions: 1 2 3 4 5 6 7 8 9 10 11 12 13
000
FTUS43 KMPX 301739
TAFEAU
TAF
KEAU 301739Z 3018/3118 VRB05KT P6SM -SHRA OVC050
     FM302200 11008KT P6SM BKN050
     FM310300 04008KT P6SM SCT050 SCT150
     FM310800 32005KT P6SM SKC=

USA.gov is the U.S. government's official web portal to all federal, state and local government web resources and services.